sensor_id;sensor_type;location;lat;lon;timestamp;temperature;humidity
18073;DHT22;9161;47.348;9.648;2023-05-23T00:04:52;17.50;99.90
18073;DHT22;9161;47.348;9.648;2023-05-23T00:09:59;17.50;99.90
18073;DHT22;9161;47.348;9.648;2023-05-23T00:15:01;17.40;99.90
18073;DHT22;9161;47.348;9.648;2023-05-23T00:20:04;17.40;99.90
18073;DHT22;9161;47.348;9.648;2023-05-23T00:25:10;17.50;99.90
18073;DHT22;9161;47.348;9.648;2023-05-23T00:30:12;17.40;99.90
18073;DHT22;9161;47.348;9.648;2023-05-23T00:35:15;17.30;99.90
18073;DHT22;9161;47.348;9.648;2023-05-23T00:40:19;17.30;99.90
18073;DHT22;9161;47.348;9.648;2023-05-23T00:45:21;17.20;99.90
18073;DHT22;9161;47.348;9.648;2023-05-23T00:50:23;17.10;99.90
18073;DHT22;9161;47.348;9.648;2023-05-23T00:55:31;17.10;99.90
18073;DHT22;9161;47.348;9.648;2023-05-23T01:00:34;17.10;99.90
18073;DHT22;9161;47.348;9.648;2023-05-23T01:05:39;17.10;99.90
18073;DHT22;9161;47.348;9.648;2023-05-23T01:10:43;17.10;99.90
18073;DHT22;9161;47.348;9.648;2023-05-23T01:15:49;17.00;99.90
18073;DHT22;9161;47.348;9.648;2023-05-23T01:20:55;17.10;99.90
18073;DHT22;9161;47.348;9.648;2023-05-23T01:26:16;17.10;99.90
18073;DHT22;9161;47.348;9.648;2023-05-23T01:31:21;17.30;99.90
18073;DHT22;9161;47.348;9.648;2023-05-23T01:36:25;17.30;99.90
18073;DHT22;9161;47.348;9.648;2023-05-23T01:41:27;17.40;99.90
18073;DHT22;9161;47.348;9.648;2023-05-23T01:46:33;17.30;99.90
18073;DHT22;9161;47.348;9.648;2023-05-23T01:51:36;17.30;99.90
18073;DHT22;9161;47.348;9.648;2023-05-23T01:56:39;17.10;99.90
18073;DHT22;9161;47.348;9.648;2023-05-23T02:01:44;17.00;99.90
18073;DHT22;9161;47.348;9.648;2023-05-23T02:06:46;16.90;99.90
18073;DHT22;9161;47.348;9.648;2023-05-23T02:11:48;16.70;99.90
18073;DHT22;9161;47.348;9.648;2023-05-23T02:16:51;16.50;99.90
18073;DHT22;9161;47.348;9.648;2023-05-23T02:21:54;16.50;99.90
18073;DHT22;9161;47.348;9.648;2023-05-23T02:26:56;16.40;99.90
18073;DHT22;9161;47.348;9.648;2023-05-23T02:32:00;16.40;99.90
18073;DHT22;9161;47.348;9.648;2023-05-23T02:37:02;16.20;99.90
18073;DHT22;9161;47.348;9.648;2023-05-23T02:42:04;16.00;99.90
18073;DHT22;9161;47.348;9.648;2023-05-23T02:47:08;15.90;99.90
18073;DHT22;9161;47.348;9.648;2023-05-23T02:52:10;15.80;99.90
18073;DHT22;9161;47.348;9.648;2023-05-23T02:57:13;15.70;99.90
18073;DHT22;9161;47.348;9.648;2023-05-23T03:02:16;15.50;99.90
18073;DHT22;9161;47.348;9.648;2023-05-23T03:07:19;15.60;99.90
18073;DHT22;9161;47.348;9.648;2023-05-23T03:12:28;15.40;99.90
18073;DHT22;9161;47.348;9.648;2023-05-23T03:17:32;15.30;99.90
18073;DHT22;9161;47.348;9.648;2023-05-23T03:22:34;15.30;99.90
18073;DHT22;9161;47.348;9.648;2023-05-23T03:27:36;15.30;99.90
18073;DHT22;9161;47.348;9.648;2023-05-23T03:32:39;15.30;99.90
18073;DHT22;9161;47.348;9.648;2023-05-23T03:37:42;15.40;99.90
18073;DHT22;9161;47.348;9.648;2023-05-23T03:42:46;15.50;99.90
18073;DHT22;9161;47.348;9.648;2023-05-23T03:47:50;15.60;99.90
18073;DHT22;9161;47.348;9.648;2023-05-23T03:52:52;15.70;99.90
18073;DHT22;9161;47.348;9.648;2023-05-23T03:57:54;15.70;99.90
18073;DHT22;9161;47.348;9.648;2023-05-23T04:02:57;15.80;99.90
18073;DHT22;9161;47.348;9.648;2023-05-23T04:07:59;15.90;99.90
18073;DHT22;9161;47.348;9.648;2023-05-23T04:13:02;15.90;99.90
18073;DHT22;9161;47.348;9.648;2023-05-23T04:18:06;16.10;99.90
18073;DHT22;9161;47.348;9.648;2023-05-23T04:23:09;16.20;99.90
18073;DHT22;9161;47.348;9.648;2023-05-23T04:28:11;16.30;99.90
18073;DHT22;9161;47.348;9.648;2023-05-23T04:33:17;16.20;99.90
18073;DHT22;9161;47.348;9.648;2023-05-23T04:38:19;16.10;99.90
18073;DHT22;9161;47.348;9.648;2023-05-23T04:43:22;16.10;99.90
18073;DHT22;9161;47.348;9.648;2023-05-23T04:48:28;16.30;99.90
18073;DHT22;9161;47.348;9.648;2023-05-23T04:53:31;16.50;99.90
18073;DHT22;9161;47.348;9.648;2023-05-23T04:58:33;16.70;99.90
18073;DHT22;9161;47.348;9.648;2023-05-23T05:03:37;16.70;99.90
18073;DHT22;9161;47.348;9.648;2023-05-23T05:08:39;16.60;99.90
18073;DHT22;9161;47.348;9.648;2023-05-23T05:13:42;16.70;99.90
18073;DHT22;9161;47.348;9.648;2023-05-23T05:18:45;16.80;99.90
18073;DHT22;9161;47.348;9.648;2023-05-23T05:23:47;16.90;99.90
18073;DHT22;9161;47.348;9.648;2023-05-23T05:28:49;16.80;99.90
18073;DHT22;9161;47.348;9.648;2023-05-23T05:33:54;17.00;99.90
18073;DHT22;9161;47.348;9.648;2023-05-23T05:38:56;17.20;99.90
18073;DHT22;9161;47.348;9.648;2023-05-23T05:43:58;17.50;99.90
18073;DHT22;9161;47.348;9.648;2023-05-23T05:49:01;17.80;99.90
18073;DHT22;9161;47.348;9.648;2023-05-23T05:54:03;18.00;99.90
18073;DHT22;9161;47.348;9.648;2023-05-23T05:59:06;18.20;99.90
18073;DHT22;9161;47.348;9.648;2023-05-23T06:04:09;18.40;99.90
18073;DHT22;9161;47.348;9.648;2023-05-23T06:09:12;18.40;99.90
18073;DHT22;9161;47.348;9.648;2023-05-23T06:14:14;18.40;99.90
18073;DHT22;9161;47.348;9.648;2023-05-23T06:19:20;18.00;99.90
18073;DHT22;9161;47.348;9.648;2023-05-23T06:24:22;17.90;99.90
18073;DHT22;9161;47.348;9.648;2023-05-23T06:29:24;17.90;99.90
18073;DHT22;9161;47.348;9.648;2023-05-23T06:34:28;17.90;99.90
18073;DHT22;9161;47.348;9.648;2023-05-23T06:39:30;17.90;99.90
18073;DHT22;9161;47.348;9.648;2023-05-23T06:44:32;17.80;99.90
18073;DHT22;9161;47.348;9.648;2023-05-23T06:49:38;17.80;99.90
18073;DHT22;9161;47.348;9.648;2023-05-23T06:54:40;17.90;99.90
18073;DHT22;9161;47.348;9.648;2023-05-23T06:59:42;18.00;99.90
18073;DHT22;9161;47.348;9.648;2023-05-23T07:04:46;18.00;99.90
18073;DHT22;9161;47.348;9.648;2023-05-23T07:09:48;18.00;99.90
18073;DHT22;9161;47.348;9.648;2023-05-23T07:14:50;18.30;99.90
18073;DHT22;9161;47.348;9.648;2023-05-23T07:19:54;18.80;99.90
18073;DHT22;9161;47.348;9.648;2023-05-23T07:24:56;19.40;99.90
18073;DHT22;9161;47.348;9.648;2023-05-23T07:29:58;19.70;99.90
18073;DHT22;9161;47.348;9.648;2023-05-23T07:35:02;19.80;99.90
18073;DHT22;9161;47.348;9.648;2023-05-23T07:40:06;20.10;99.90
18073;DHT22;9161;47.348;9.648;2023-05-23T07:45:10;20.30;99.90
18073;DHT22;9161;47.348;9.648;2023-05-23T07:50:14;19.70;99.90
18073;DHT22;9161;47.348;9.648;2023-05-23T07:55:17;19.70;99.90
18073;DHT22;9161;47.348;9.648;2023-05-23T08:00:19;19.50;99.90
18073;DHT22;9161;47.348;9.648;2023-05-23T08:05:23;19.90;99.90
18073;DHT22;9161;47.348;9.648;2023-05-23T08:10:25;19.60;99.90
18073;DHT22;9161;47.348;9.648;2023-05-23T08:15:29;20.00;99.90
18073;DHT22;9161;47.348;9.648;2023-05-23T08:20:32;20.10;99.90
18073;DHT22;9161;47.348;9.648;2023-05-23T08:25:35;20.80;99.90
18073;DHT22;9161;47.348;9.648;2023-05-23T08:30:37;21.30;99.90
18073;DHT22;9161;47.348;9.648;2023-05-23T08:35:41;22.40;99.90
18073;DHT22;9161;47.348;9.648;2023-05-23T08:40:48;23.60;99.90
18073;DHT22;9161;47.348;9.648;2023-05-23T08:45:51;23.10;99.90
18073;DHT22;9161;47.348;9.648;2023-05-23T08:50:57;23.00;99.90
18073;DHT22;9161;47.348;9.648;2023-05-23T08:55:59;23.40;99.90
18073;DHT22;9161;47.348;9.648;2023-05-23T09:01:03;23.60;99.90
18073;DHT22;9161;47.348;9.648;2023-05-23T09:06:07;22.90;99.90
18073;DHT22;9161;47.348;9.648;2023-05-23T09:11:10;22.00;99.90
18073;DHT22;9161;47.348;9.648;2023-05-23T09:16:15;21.80;99.90
18073;DHT22;9161;47.348;9.648;2023-05-23T09:21:19;21.50;99.90
18073;DHT22;9161;47.348;9.648;2023-05-23T09:26:22;20.70;99.90
18073;DHT22;9161;47.348;9.648;2023-05-23T09:31:25;20.30;99.90
18073;DHT22;9161;47.348;9.648;2023-05-23T09:36:31;19.40;99.90
18073;DHT22;9161;47.348;9.648;2023-05-23T09:41:35;19.40;99.90
18073;DHT22;9161;47.348;9.648;2023-05-23T09:46:38;19.30;99.90
18073;DHT22;9161;47.348;9.648;2023-05-23T09:51:42;19.30;99.90
18073;DHT22;9161;47.348;9.648;2023-05-23T09:56:44;18.80;99.90
18073;DHT22;9161;47.348;9.648;2023-05-23T10:01:47;18.60;99.90
18073;DHT22;9161;47.348;9.648;2023-05-23T10:06:55;19.40;99.90
18073;DHT22;9161;47.348;9.648;2023-05-23T10:18:02;19.20;99.90
18073;DHT22;9161;47.348;9.648;2023-05-23T10:23:09;20.40;99.90
18073;DHT22;9161;47.348;9.648;2023-05-23T10:28:12;20.50;99.90
18073;DHT22;9161;47.348;9.648;2023-05-23T10:33:16;20.30;99.90
18073;DHT22;9161;47.348;9.648;2023-05-23T10:38:30;19.80;99.90
18073;DHT22;9161;47.348;9.648;2023-05-23T10:43:39;19.40;99.90
18073;DHT22;9161;47.348;9.648;2023-05-23T10:48:43;19.20;99.90
18073;DHT22;9161;47.348;9.648;2023-05-23T10:53:52;19.00;99.90
18073;DHT22;9161;47.348;9.648;2023-05-23T10:58:55;19.20;99.90
18073;DHT22;9161;47.348;9.648;2023-05-23T11:04:04;19.00;99.90
18073;DHT22;9161;47.348;9.648;2023-05-23T11:09:12;18.90;99.90
18073;DHT22;9161;47.348;9.648;2023-05-23T11:14:16;20.20;99.90
18073;DHT22;9161;47.348;9.648;2023-05-23T11:19:25;21.10;99.90
18073;DHT22;9161;47.348;9.648;2023-05-23T11:24:50;22.90;99.90
18073;DHT22;9161;47.348;9.648;2023-05-23T11:29:57;22.80;99.90
18073;DHT22;9161;47.348;9.648;2023-05-23T11:35:00;22.60;99.90
18073;DHT22;9161;47.348;9.648;2023-05-23T11:40:26;23.20;99.90
18073;DHT22;9161;47.348;9.648;2023-05-23T11:45:29;21.30;99.90
18073;DHT22;9161;47.348;9.648;2023-05-23T11:50:32;20.60;99.90
18073;DHT22;9161;47.348;9.648;2023-05-23T11:55:38;20.40;99.90
18073;DHT22;9161;47.348;9.648;2023-05-23T12:00:44;20.10;99.90
18073;DHT22;9161;47.348;9.648;2023-05-23T12:05:46;20.40;99.90
18073;DHT22;9161;47.348;9.648;2023-05-23T12:10:51;20.30;99.90
18073;DHT22;9161;47.348;9.648;2023-05-23T12:15:55;20.60;99.90
18073;DHT22;9161;47.348;9.648;2023-05-23T12:21:01;21.20;99.90
18073;DHT22;9161;47.348;9.648;2023-05-23T12:26:07;22.90;99.90
18073;DHT22;9161;47.348;9.648;2023-05-23T12:31:10;25.60;99.90
18073;DHT22;9161;47.348;9.648;2023-05-23T12:36:13;28.40;99.90
18073;DHT22;9161;47.348;9.648;2023-05-23T12:41:18;29.30;99.90
18073;DHT22;9161;47.348;9.648;2023-05-23T12:46:23;31.30;99.90
18073;DHT22;9161;47.348;9.648;2023-05-23T12:51:25;26.80;99.90
18073;DHT22;9161;47.348;9.648;2023-05-23T12:56:29;27.70;99.90
18073;DHT22;9161;47.348;9.648;2023-05-23T13:01:32;30.50;99.90
18073;DHT22;9161;47.348;9.648;2023-05-23T13:06:35;31.40;99.90
18073;DHT22;9161;47.348;9.648;2023-05-23T13:11:38;32.30;99.90
18073;DHT22;9161;47.348;9.648;2023-05-23T13:16:41;30.30;99.90
18073;DHT22;9161;47.348;9.648;2023-05-23T13:21:45;31.60;99.90
18073;DHT22;9161;47.348;9.648;2023-05-23T13:26:50;31.10;99.90
18073;DHT22;9161;47.348;9.648;2023-05-23T13:31:52;29.70;99.90
18073;DHT22;9161;47.348;9.648;2023-05-23T13:36:55;27.20;99.90
18073;DHT22;9161;47.348;9.648;2023-05-23T13:41:59;25.20;99.90
18073;DHT22;9161;47.348;9.648;2023-05-23T13:47:09;24.40;99.90
18073;DHT22;9161;47.348;9.648;2023-05-23T13:52:12;24.00;99.90
18073;DHT22;9161;47.348;9.648;2023-05-23T13:57:16;23.90;99.90
18073;DHT22;9161;47.348;9.648;2023-05-23T14:02:18;23.20;99.90
18073;DHT22;9161;47.348;9.648;2023-05-23T14:07:21;22.80;99.90
18073;DHT22;9161;47.348;9.648;2023-05-23T14:12:25;22.50;99.90
18073;DHT22;9161;47.348;9.648;2023-05-23T14:17:27;22.40;99.90
18073;DHT22;9161;47.348;9.648;2023-05-23T14:22:29;23.40;99.90
18073;DHT22;9161;47.348;9.648;2023-05-23T14:27:33;23.90;99.90
18073;DHT22;9161;47.348;9.648;2023-05-23T14:32:35;23.30;99.90
18073;DHT22;9161;47.348;9.648;2023-05-23T14:37:39;22.80;99.90
18073;DHT22;9161;47.348;9.648;2023-05-23T14:42:42;22.90;99.90
18073;DHT22;9161;47.348;9.648;2023-05-23T14:47:45;23.20;99.90
18073;DHT22;9161;47.348;9.648;2023-05-23T14:52:47;23.20;99.90
18073;DHT22;9161;47.348;9.648;2023-05-23T14:57:50;23.20;99.90
18073;DHT22;9161;47.348;9.648;2023-05-23T15:02:52;23.50;99.90
18073;DHT22;9161;47.348;9.648;2023-05-23T15:07:55;24.50;99.90
18073;DHT22;9161;47.348;9.648;2023-05-23T15:12:59;24.30;99.90
18073;DHT22;9161;47.348;9.648;2023-05-23T15:18:03;23.50;99.90
18073;DHT22;9161;47.348;9.648;2023-05-23T15:23:07;23.20;99.90
18073;DHT22;9161;47.348;9.648;2023-05-23T15:28:11;22.70;99.90
18073;DHT22;9161;47.348;9.648;2023-05-23T15:33:14;22.50;99.90
18073;DHT22;9161;47.348;9.648;2023-05-23T15:38:17;22.00;99.90
18073;DHT22;9161;47.348;9.648;2023-05-23T15:43:21;21.70;99.90
18073;DHT22;9161;47.348;9.648;2023-05-23T15:48:24;21.30;99.90
18073;DHT22;9161;47.348;9.648;2023-05-23T15:53:26;20.90;99.90
18073;DHT22;9161;47.348;9.648;2023-05-23T15:58:35;20.60;99.90
18073;DHT22;9161;47.348;9.648;2023-05-23T16:03:37;20.60;99.90
18073;DHT22;9161;47.348;9.648;2023-05-23T16:08:39;20.30;99.90
18073;DHT22;9161;47.348;9.648;2023-05-23T16:13:43;20.10;99.90
18073;DHT22;9161;47.348;9.648;2023-05-23T16:18:45;20.10;99.90
18073;DHT22;9161;47.348;9.648;2023-05-23T16:23:47;20.10;99.90
18073;DHT22;9161;47.348;9.648;2023-05-23T16:28:51;20.00;99.90
18073;DHT22;9161;47.348;9.648;2023-05-23T16:33:54;20.00;99.90
18073;DHT22;9161;47.348;9.648;2023-05-23T16:38:58;20.00;99.90
18073;DHT22;9161;47.348;9.648;2023-05-23T16:44:01;19.80;99.90
18073;DHT22;9161;47.348;9.648;2023-05-23T16:49:04;20.10;99.90
18073;DHT22;9161;47.348;9.648;2023-05-23T16:54:06;20.20;99.90
18073;DHT22;9161;47.348;9.648;2023-05-23T16:59:10;20.50;99.90
18073;DHT22;9161;47.348;9.648;2023-05-23T17:04:12;20.10;99.90
18073;DHT22;9161;47.348;9.648;2023-05-23T17:09:17;20.50;99.90
18073;DHT22;9161;47.348;9.648;2023-05-23T17:14:22;20.20;99.90
18073;DHT22;9161;47.348;9.648;2023-05-23T17:19:25;20.10;99.90
18073;DHT22;9161;47.348;9.648;2023-05-23T17:24:27;20.00;99.90
18073;DHT22;9161;47.348;9.648;2023-05-23T17:29:32;20.10;99.90
18073;DHT22;9161;47.348;9.648;2023-05-23T17:34:35;19.80;99.90
18073;DHT22;9161;47.348;9.648;2023-05-23T17:39:38;19.70;99.90
18073;DHT22;9161;47.348;9.648;2023-05-23T17:44:41;19.70;99.90
18073;DHT22;9161;47.348;9.648;2023-05-23T17:49:44;20.00;99.90
18073;DHT22;9161;47.348;9.648;2023-05-23T17:54:50;20.20;99.90
18073;DHT22;9161;47.348;9.648;2023-05-23T17:59:55;20.10;99.90
18073;DHT22;9161;47.348;9.648;2023-05-23T18:04:58;20.00;99.90
18073;DHT22;9161;47.348;9.648;2023-05-23T18:10:14;19.90;99.90
18073;DHT22;9161;47.348;9.648;2023-05-23T18:15:53;19.90;99.90
18073;DHT22;9161;47.348;9.648;2023-05-23T18:27:51;19.70;99.90
18073;DHT22;9161;47.348;9.648;2023-05-23T18:32:55;19.50;99.90
18073;DHT22;9161;47.348;9.648;2023-05-23T18:37:59;19.50;99.90
18073;DHT22;9161;47.348;9.648;2023-05-23T18:43:02;19.20;99.90
18073;DHT22;9161;47.348;9.648;2023-05-23T18:48:08;19.10;99.90
18073;DHT22;9161;47.348;9.648;2023-05-23T18:53:11;18.80;99.90
18073;DHT22;9161;47.348;9.648;2023-05-23T18:58:14;18.60;99.90
18073;DHT22;9161;47.348;9.648;2023-05-23T19:03:19;18.50;99.90
18073;DHT22;9161;47.348;9.648;2023-05-23T19:08:23;18.50;99.90
18073;DHT22;9161;47.348;9.648;2023-05-23T19:13:26;18.30;99.90
18073;DHT22;9161;47.348;9.648;2023-05-23T19:18:34;18.10;99.90
18073;DHT22;9161;47.348;9.648;2023-05-23T19:23:41;18.20;99.90
18073;DHT22;9161;47.348;9.648;2023-05-23T19:28:54;18.10;99.90
18073;DHT22;9161;47.348;9.648;2023-05-23T19:34:01;18.00;99.90
18073;DHT22;9161;47.348;9.648;2023-05-23T19:39:05;17.90;99.90
18073;DHT22;9161;47.348;9.648;2023-05-23T19:44:09;17.80;99.90
18073;DHT22;9161;47.348;9.648;2023-05-23T19:49:15;17.70;99.90
18073;DHT22;9161;47.348;9.648;2023-05-23T19:54:19;17.60;99.90
18073;DHT22;9161;47.348;9.648;2023-05-23T19:59:23;17.50;99.90
18073;DHT22;9161;47.348;9.648;2023-05-23T20:04:27;17.50;99.90
18073;DHT22;9161;47.348;9.648;2023-05-23T20:09:30;17.40;99.90
18073;DHT22;9161;47.348;9.648;2023-05-23T20:14:32;17.30;99.90
18073;DHT22;9161;47.348;9.648;2023-05-23T20:19:36;17.20;99.90
18073;DHT22;9161;47.348;9.648;2023-05-23T20:24:40;17.10;99.90
18073;DHT22;9161;47.348;9.648;2023-05-23T20:29:43;17.00;99.90
18073;DHT22;9161;47.348;9.648;2023-05-23T20:34:48;17.10;99.90
18073;DHT22;9161;47.348;9.648;2023-05-23T20:39:51;17.10;99.90
18073;DHT22;9161;47.348;9.648;2023-05-23T20:44:54;17.10;99.90
18073;DHT22;9161;47.348;9.648;2023-05-23T20:49:59;17.10;99.90
18073;DHT22;9161;47.348;9.648;2023-05-23T20:55:01;17.10;99.90
18073;DHT22;9161;47.348;9.648;2023-05-23T21:00:04;17.00;99.90
18073;DHT22;9161;47.348;9.648;2023-05-23T21:05:13;17.00;99.90
18073;DHT22;9161;47.348;9.648;2023-05-23T21:10:15;16.90;99.90
18073;DHT22;9161;47.348;9.648;2023-05-23T21:15:19;16.90;99.90
18073;DHT22;9161;47.348;9.648;2023-05-23T21:20:22;16.80;99.90
18073;DHT22;9161;47.348;9.648;2023-05-23T21:25:24;16.80;99.90
18073;DHT22;9161;47.348;9.648;2023-05-23T21:30:27;16.70;99.90
18073;DHT22;9161;47.348;9.648;2023-05-23T21:35:32;16.60;99.90
18073;DHT22;9161;47.348;9.648;2023-05-23T21:40:35;16.50;99.90
18073;DHT22;9161;47.348;9.648;2023-05-23T21:45:37;16.50;99.90
18073;DHT22;9161;47.348;9.648;2023-05-23T21:50:41;16.50;99.90
18073;DHT22;9161;47.348;9.648;2023-05-23T21:55:44;16.50;99.90
18073;DHT22;9161;47.348;9.648;2023-05-23T22:00:46;16.50;99.90
18073;DHT22;9161;47.348;9.648;2023-05-23T22:05:50;16.50;99.90
18073;DHT22;9161;47.348;9.648;2023-05-23T22:10:52;16.50;99.90
18073;DHT22;9161;47.348;9.648;2023-05-23T22:15:54;16.50;99.90
18073;DHT22;9161;47.348;9.648;2023-05-23T22:20:58;16.50;99.90
18073;DHT22;9161;47.348;9.648;2023-05-23T22:26:00;16.50;99.90
18073;DHT22;9161;47.348;9.648;2023-05-23T22:31:02;16.50;99.90
18073;DHT22;9161;47.348;9.648;2023-05-23T22:36:07;16.50;99.90
18073;DHT22;9161;47.348;9.648;2023-05-23T22:41:10;16.40;99.90
18073;DHT22;9161;47.348;9.648;2023-05-23T22:46:12;16.40;99.90
18073;DHT22;9161;47.348;9.648;2023-05-23T22:51:15;16.30;99.90
18073;DHT22;9161;47.348;9.648;2023-05-23T22:56:19;16.30;99.90
18073;DHT22;9161;47.348;9.648;2023-05-23T23:01:21;16.30;99.90
18073;DHT22;9161;47.348;9.648;2023-05-23T23:06:25;16.20;99.90
18073;DHT22;9161;47.348;9.648;2023-05-23T23:11:29;16.20;99.90
18073;DHT22;9161;47.348;9.648;2023-05-23T23:16:31;16.10;99.90
18073;DHT22;9161;47.348;9.648;2023-05-23T23:21:34;16.10;99.90
18073;DHT22;9161;47.348;9.648;2023-05-23T23:26:37;16.10;99.90
18073;DHT22;9161;47.348;9.648;2023-05-23T23:31:39;16.10;99.90
18073;DHT22;9161;47.348;9.648;2023-05-23T23:36:43;16.10;99.90
18073;DHT22;9161;47.348;9.648;2023-05-23T23:41:45;16.10;99.90
18073;DHT22;9161;47.348;9.648;2023-05-23T23:46:48;16.10;99.90
18073;DHT22;9161;47.348;9.648;2023-05-23T23:51:51;16.10;99.90
18073;DHT22;9161;47.348;9.648;2023-05-23T23:56:53;16.10;99.90
